Walnut Creek, Ohio
Current Conditions -  °F | °C
As of 2:36 PM on Thursday 23 Oct 2014 (Local Time) from KPHD Reporting Station
Scattered Clouds Scattered Clouds  
Wind Chill: 59°   Ceiling: Unl
Heat Index: 59°   Visibility: 10mi
Dew Point: 45°   Wind: 12mph
Humidity: 60%   Direction: 330°NNW
Pressure: 30.13"   Gusts: NA
Location:  40.54°N, 81.72°W
Report Text: KPHD 231836Z AUTO 33010KT 10SM SCT029 15/07 A3013 RMK AO2 T01500072
Loading
Personal Weather Stations






























Interactive Weather Map
Tropical Storm Tracking
New forecast layout! Learn more

10-Day Weather Forecast

Advertisements
Track Severe Weather on mobile